Terminal Aerodrome Forecast
Issued by NWS Shreveport, LA

Home | Current Version | Previous Version | Text Only | Print | Product List | Glossary On
Versions: 1 2 3 4 5 6 7 8 9 10 11 12 13 14 15
000
FTUS44 KSHV 191700
TAFSHV
TAF
KSHV 191740Z 1918/2018 07007KT P6SM BKN035
     FM192000 09008KT P6SM SCT045
     FM200100 12004KT P6SM SKC
      TEMPO 2010/2013 5SM BR SKC=

USA.gov is the U.S. government's official web portal to all federal, state and local government web resources and services.